Time;durP1;ratioP1;P1;durP2;ratioP2;P2;SDS_P1;SDS_P2;PMS_P1;PMS_P2;Temp;Humidity;BMP_temperature;BMP_pressure;BME280_temperature;BME280_humidity;BME280_pressure;Samples;Min_cycle;Max_cycle;Signal;HPM_P1;HPM_P2
2023/03/12 00:00:32;;;;;;;18.35;5.28;;;;;;;;;;1036276;28;20030;-78
2023/03/12 00:01:17;;;;;;;21.73;7.28;;;;;;;;;;1032282;28;20078;-78
2023/03/12 00:01:55;;;;;;;14.07;4.95;;;;;;;;;;1029801;28;20029;-78
2023/03/12 00:02:30;;;;;;;13.05;6.28;;;;;;;;;;1034137;28;20046;-78
2023/03/12 00:03:12;;;;;;;13.95;3.55;;;;;;;;;;1033298;28;20022;-78
2023/03/12 00:03:49;;;;;;;14.88;7.13;;;;;;;;;;1038056;28;20017;-78
2023/03/12 00:04:25;;;;;;;18.15;7.25;;;;;;;;;;1038895;28;20010;-78
2023/03/12 00:04:59;;;;;;;19.40;6.18;;;;;;;;;;1040266;28;20012;-78
2023/03/12 00:05:32;;;;;;;21.00;3.88;;;;;;;;;;1039833;28;20016;-78
2023/03/12 00:06:11;;;;;;;25.52;5.53;;;;;;;;;;1040690;28;20006;-78
2023/03/12 00:06:50;;;;;;;40.53;6.68;;;;;;;;;;1040500;28;20013;-78
2023/03/12 00:07:24;;;;;;;16.42;8.05;;;;;;;;;;1043870;28;20021;-78
2023/03/12 00:08:01;;;;;;;22.75;8.02;;;;;;;;;;1038781;28;20006;-78
2023/03/12 00:08:37;;;;;;;24.13;6.53;;;;;;;;;;1038390;28;20043;-78
2023/03/12 00:09:11;;;;;;;13.93;4.00;;;;;;;;;;1039258;28;19994;-78
2023/03/12 00:09:45;;;;;;;26.88;5.65;;;;;;;;;;1040794;28;20057;-78
2023/03/12 00:10:27;;;;;;;16.77;7.65;;;;;;;;;;1041317;28;20025;-79
2023/03/12 00:11:08;;;;;;;24.65;6.72;;;;;;;;;;1041255;28;20006;-79
2023/03/12 00:11:45;;;;;;;33.40;7.60;;;;;;;;;;1039519;28;19994;-78
2023/03/12 00:12:20;;;;;;;21.42;7.00;;;;;;;;;;1036561;28;19997;-78
2023/03/12 00:13:06;;;;;;;8.15;4.22;;;;;;;;;;1038180;28;20090;-78
2023/03/12 00:13:50;;;;;;;28.73;5.97;;;;;;;;;;1037396;28;20002;-78
2023/03/12 00:14:24;;;;;;;12.70;7.07;;;;;;;;;;1036363;28;20026;-78
2023/03/12 00:14:58;;;;;;;28.88;4.82;;;;;;;;;;1039831;28;20026;-78
2023/03/12 00:15:34;;;;;;;13.45;6.05;;;;;;;;;;1038628;28;20139;-78
2023/03/12 00:16:16;;;;;;;11.20;5.15;;;;;;;;;;1034762;28;20031;-78
2023/03/12 00:16:50;;;;;;;15.27;6.88;;;;;;;;;;1037726;28;20040;-78
2023/03/12 00:17:25;;;;;;;19.65;5.63;;;;;;;;;;1033971;28;20007;-78
2023/03/12 00:18:13;;;;;;;13.75;4.70;;;;;;;;;;1032533;28;20029;-78
2023/03/12 00:18:52;;;;;;;13.18;4.85;;;;;;;;;;1035961;28;20052;-78
2023/03/12 00:19:48;;;;;;;20.10;8.75;;;;;;;;;;1038987;28;20010;-78
2023/03/12 00:20:41;;;;;;;22.70;7.82;;;;;;;;;;1039852;28;19994;-78
2023/03/12 00:21:20;;;;;;;30.05;6.63;;;;;;;;;;1037630;28;20033;-78
2023/03/12 00:21:56;;;;;;;25.80;7.22;;;;;;;;;;1041392;28;20026;-78
2023/03/12 00:22:29;;;;;;;12.02;4.75;;;;;;;;;;1039568;28;20016;-78
2023/03/12 00:23:06;;;;;;;26.45;6.60;;;;;;;;;;1041336;28;20013;-78
2023/03/12 00:23:47;;;;;;;17.38;4.82;;;;;;;;;;1039233;28;20037;-78
2023/03/12 00:24:23;;;;;;;26.88;5.22;;;;;;;;;;1040653;28;20018;-78
2023/03/12 00:24:59;;;;;;;29.63;5.38;;;;;;;;;;1041370;28;20028;-78
2023/03/12 00:25:35;;;;;;;20.02;5.35;;;;;;;;;;1038350;28;20009;-78
2023/03/12 00:26:17;;;;;;;12.68;5.22;;;;;;;;;;1038043;28;20023;-78
2023/03/12 00:26:57;;;;;;;15.63;5.70;;;;;;;;;;1040969;28;20002;-78
2023/03/12 00:27:36;;;;;;;22.20;6.32;;;;;;;;;;1042290;28;20021;-78
2023/03/12 00:28:09;;;;;;;17.88;6.22;;;;;;;;;;1037255;28;20021;-78
2023/03/12 00:28:45;;;;;;;16.50;4.93;;;;;;;;;;1032974;28;20027;-78
2023/03/12 00:29:22;;;;;;;11.55;5.25;;;;;;;;;;1034693;28;20010;-78
2023/03/12 00:30:01;;;;;;;9.68;5.00;;;;;;;;;;1034917;28;20015;-78
2023/03/12 00:30:39;;;;;;;21.75;7.47;;;;;;;;;;1039983;28;20033;-78
2023/03/12 00:31:21;;;;;;;18.42;6.72;;;;;;;;;;1038209;28;20006;-78
2023/03/12 00:31:53;;;;;;;18.17;4.93;;;;;;;;;;1039929;28;20048;-78
2023/03/12 00:32:29;;;;;;;27.75;7.07;;;;;;;;;;1036051;28;20022;-78
2023/03/12 00:33:01;;;;;;;28.42;7.68;;;;;;;;;;1036100;28;20009;-78
2023/03/12 00:33:39;;;;;;;18.52;6.18;;;;;;;;;;1034843;28;20029;-78
2023/03/12 00:34:11;;;;;;;25.10;5.95;;;;;;;;;;1039288;28;20006;-78
2023/03/12 00:34:50;;;;;;;41.72;7.15;;;;;;;;;;1039208;28;20029;-78
2023/03/12 00:35:29;;;;;;;7.32;4.70;;;;;;;;;;1036039;28;20077;-78
2023/03/12 00:36:07;;;;;;;14.18;6.03;;;;;;;;;;1031133;28;20025;-78
2023/03/12 00:36:49;;;;;;;25.10;5.63;;;;;;;;;;1033743;28;20026;-78
2023/03/12 00:37:26;;;;;;;14.25;5.10;;;;;;;;;;1039135;28;20034;-78
2023/03/12 00:37:59;;;;;;;16.42;7.43;;;;;;;;;;1036790;28;20013;-78
2023/03/12 00:38:41;;;;;;;11.07;3.65;;;;;;;;;;1040631;28;20009;-78
2023/03/12 00:39:17;;;;;;;17.83;5.88;;;;;;;;;;1037165;28;20017;-78
2023/03/12 00:39:51;;;;;;;17.27;5.57;;;;;;;;;;1038170;28;19995;-78
2023/03/12 00:40:24;;;;;;;25.02;5.03;;;;;;;;;;1038151;28;20006;-78
2023/03/12 00:40:58;;;;;;;24.25;4.97;;;;;;;;;;1039128;28;19987;-78
2023/03/12 00:41:40;;;;;;;21.77;6.70;;;;;;;;;;1037815;28;20002;-78
2023/03/12 00:42:13;;;;;;;14.02;5.30;;;;;;;;;;1041237;28;20017;-79
2023/03/12 00:42:48;;;;;;;7.13;3.80;;;;;;;;;;1040719;28;20018;-78
2023/03/12 00:43:22;;;;;;;14.02;4.57;;;;;;;;;;1038521;28;20002;-78
2023/03/12 00:43:58;;;;;;;21.13;5.10;;;;;;;;;;1039025;28;20002;-78
2023/03/12 00:44:32;;;;;;;28.60;10.02;;;;;;;;;;1037239;28;20005;-78
2023/03/12 00:45:13;;;;;;;21.17;7.15;;;;;;;;;;1037129;28;20010;-78
2023/03/12 00:45:52;;;;;;;24.48;7.18;;;;;;;;;;1032688;28;20109;-78
2023/03/12 00:46:30;;;;;;;9.95;4.88;;;;;;;;;;1032810;28;20003;-78
2023/03/12 00:47:08;;;;;;;24.55;6.35;;;;;;;;;;1037909;28;20038;-78
2023/03/12 00:47:46;;;;;;;24.00;5.25;;;;;;;;;;1039030;28;20045;-78
2023/03/12 00:48:24;;;;;;;21.77;4.20;;;;;;;;;;1033004;28;19999;-78
2023/03/12 00:49:02;;;;;;;15.57;4.97;;;;;;;;;;1035490;28;20066;-78
2023/03/12 00:49:41;;;;;;;20.52;6.97;;;;;;;;;;1034169;28;20463;-78
2023/03/12 00:50:18;;;;;;;26.40;5.32;;;;;;;;;;1036310;28;20031;-78
2023/03/12 00:51:04;;;;;;;10.27;6.32;;;;;;;;;;1034501;28;20107;-78
2023/03/12 00:52:11;;;;;;;26.42;7.65;;;;;;;;;;1041288;28;20070;-78
2023/03/12 00:52:55;;;;;;;41.40;7.72;;;;;;;;;;1033483;28;20011;-78
2023/03/12 00:53:44;;;;;;;22.60;7.32;;;;;;;;;;1038931;28;20041;-79
2023/03/12 00:54:17;;;;;;;15.18;8.05;;;;;;;;;;1037380;28;20011;-79
2023/03/12 00:54:57;;;;;;;21.75;8.27;;;;;;;;;;1037151;28;20041;-79
2023/03/12 00:55:36;;;;;;;23.25;5.82;;;;;;;;;;1039326;28;20013;-79
2023/03/12 00:56:12;;;;;;;18.48;6.55;;;;;;;;;;1041039;28;20061;-79
2023/03/12 00:56:51;;;;;;;10.55;5.60;;;;;;;;;;1036869;28;20054;-79
2023/03/12 00:57:36;;;;;;;26.70;6.32;;;;;;;;;;1035625;28;20005;-79
2023/03/12 00:58:18;;;;;;;14.85;4.55;;;;;;;;;;1034382;28;20015;-78
2023/03/12 00:59:07;;;;;;;11.98;7.43;;;;;;;;;;1038909;28;20014;-78
2023/03/12 01:00:13;;;;;;;31.23;5.40;;;;;;;;;;1039423;28;20037;-78
2023/03/12 01:00:51;;;;;;;34.70;5.15;;;;;;;;;;1040555;28;20022;-78
2023/03/12 01:01:26;;;;;;;14.98;6.93;;;;;;;;;;1040161;28;20005;-78
2023/03/12 01:02:02;;;;;;;20.48;6.70;;;;;;;;;;1036792;28;20030;-78
2023/03/12 01:02:38;;;;;;;40.63;8.52;;;;;;;;;;1037949;28;20030;-79
2023/03/12 01:03:35;;;;;;;20.92;6.90;;;;;;;;;;1036988;28;20006;-79
2023/03/12 01:04:13;;;;;;;24.98;10.48;;;;;;;;;;1036894;28;20002;-79
2023/03/12 01:04:52;;;;;;;28.80;7.32;;;;;;;;;;1036793;28;20002;-79
2023/03/12 01:05:36;;;;;;;11.68;6.80;;;;;;;;;;1040715;28;20017;-79
2023/03/12 01:06:31;;;;;;;16.90;7.85;;;;;;;;;;1043086;28;20098;-79
2023/03/12 01:07:15;;;;;;;38.63;7.65;;;;;;;;;;1039093;28;20030;-78
2023/03/12 01:07:49;;;;;;;13.02;9.00;;;;;;;;;;1044097;28;20055;-78
2023/03/12 01:08:25;;;;;;;56.60;8.55;;;;;;;;;;1041180;28;20068;-78
2023/03/12 01:09:09;;;;;;;27.45;6.47;;;;;;;;;;1041089;28;19998;-78
2023/03/12 01:09:50;;;;;;;9.10;7.45;;;;;;;;;;1037935;28;20003;-78
2023/03/12 01:10:34;;;;;;;15.00;6.30;;;;;;;;;;1036838;28;20020;-78
2023/03/12 01:11:09;;;;;;;15.43;5.60;;;;;;;;;;1032919;28;20014;-78
2023/03/12 01:11:46;;;;;;;17.00;6.10;;;;;;;;;;1033291;28;20007;-78
2023/03/12 01:12:39;;;;;;;22.33;7.63;;;;;;;;;;1032823;28;20002;-78
2023/03/12 01:13:40;;;;;;;23.00;10.65;;;;;;;;;;1041152;23;20049;-77
2023/03/12 01:14:17;;;;;;;25.50;14.75;;;;;;;;;;1034933;28;20179;-77
2023/03/12 01:14:54;;;;;;;36.50;12.20;;;;;;;;;;1033323;28;20010;-77
2023/03/12 01:15:34;;;;;;;46.20;12.30;;;;;;;;;;1030729;28;20452;-77
2023/03/12 01:16:09;;;;;;;20.17;8.82;;;;;;;;;;1035764;28;20002;-78
2023/03/12 01:16:48;;;;;;;29.13;7.75;;;;;;;;;;1036106;28;20010;-78
2023/03/12 01:17:24;;;;;;;;;;;;;;;;;;1034064;28;20123;-78
2023/03/12 01:18:19;;;;;;;22.90;8.88;;;;;;;;;;1034154;28;19887;-78
2023/03/12 01:19:15;;;;;;;19.80;6.50;;;;;;;;;;1041032;28;20040;-78
2023/03/12 01:20:22;;;;;;;21.77;6.15;;;;;;;;;;1041303;28;20010;-78
2023/03/12 01:21:10;;;;;;;18.85;6.63;;;;;;;;;;1044668;28;20112;-78
2023/03/12 01:21:46;;;;;;;33.13;9.30;;;;;;;;;;1044836;28;20045;-78
2023/03/12 01:22:29;;;;;;;24.55;10.00;;;;;;;;;;1040746;28;20002;-78
2023/03/12 01:23:18;;;;;;;30.63;8.65;;;;;;;;;;1037066;28;19998;-78
2023/03/12 01:24:01;;;;;;;19.48;8.43;;;;;;;;;;1036025;28;20014;-78
2023/03/12 01:24:34;;;;;;;18.70;9.65;;;;;;;;;;1039523;28;20090;-78
2023/03/12 01:25:19;;;;;;;38.35;10.60;;;;;;;;;;1043623;28;20013;-78
2023/03/12 01:26:01;;;;;;;21.00;7.75;;;;;;;;;;1040749;28;20052;-78
2023/03/12 01:26:40;;;;;;;13.60;6.10;;;;;;;;;;1035678;28;20002;-78
2023/03/12 01:27:16;;;;;;;23.17;7.45;;;;;;;;;;1032795;28;20067;-78
2023/03/12 01:27:57;;;;;;;28.38;8.15;;;;;;;;;;1036573;28;20050;-78
2023/03/12 01:28:37;;;;;;;23.40;10.85;;;;;;;;;;1037873;28;20580;-78
2023/03/12 01:29:11;;;;;;;25.67;8.68;;;;;;;;;;1036978;28;20006;-78
2023/03/12 01:29:46;;;;;;;29.75;9.38;;;;;;;;;;1040725;28;20079;-78
2023/03/12 01:30:26;;;;;;;21.08;9.98;;;;;;;;;;1036249;28;20011;-78
2023/03/12 01:31:17;;;;;;;22.00;10.80;;;;;;;;;;1034340;28;20034;-78
2023/03/12 01:32:15;;;;;;;18.85;7.90;;;;;;;;;;1038597;28;20002;-78
2023/03/12 01:32:59;;;;;;;35.92;10.75;;;;;;;;;;1039386;28;20125;-78
2023/03/12 01:34:03;;;;;;;16.40;7.50;;;;;;;;;;992586;26;20043;-77
2023/03/12 01:34:39;;;;;;;17.83;7.32;;;;;;;;;;1033616;28;20532;-78
2023/03/12 01:35:14;;;;;;;25.38;8.07;;;;;;;;;;1036610;28;19995;-78
2023/03/12 01:35:50;;;;;;;24.35;9.85;;;;;;;;;;1033179;28;20050;-78
2023/03/12 01:36:30;;;;;;;26.23;8.93;;;;;;;;;;1032662;28;20027;-78
2023/03/12 01:37:13;;;;;;;30.17;11.18;;;;;;;;;;1029130;28;20070;-78
2023/03/12 01:37:48;;;;;;;15.95;7.20;;;;;;;;;;1031948;28;20023;-78
2023/03/12 01:38:22;;;;;;;22.73;9.23;;;;;;;;;;1032469;28;20003;-78
2023/03/12 01:39:02;;;;;;;11.68;7.20;;;;;;;;;;1034929;28;20014;-78
2023/03/12 01:39:38;;;;;;;19.15;10.13;;;;;;;;;;1030257;28;20019;-78
2023/03/12 01:40:27;;;;;;;15.25;8.15;;;;;;;;;;1032649;28;20022;-78
2023/03/12 01:41:23;;;;;;;23.35;8.85;;;;;;;;;;1021201;29;20016;-79
2023/03/12 01:42:09;;;;;;;13.55;6.43;;;;;;;;;;1024373;29;20016;-79
2023/03/12 01:42:59;;;;;;;27.67;5.78;;;;;;;;;;1029320;28;20030;-79
2023/03/12 01:43:45;;;;;;;22.55;9.20;;;;;;;;;;1027791;28;20011;-79
2023/03/12 01:44:30;;;;;;;22.90;8.48;;;;;;;;;;1024923;29;20063;-79
2023/03/12 01:45:05;;;;;;;26.95;8.02;;;;;;;;;;1025510;28;20059;-79
2023/03/12 01:46:05;;;;;;;28.55;8.75;;;;;;;;;;1031577;28;20082;-79
2023/03/12 01:46:45;;;;;;;40.70;10.40;;;;;;;;;;1033096;28;20031;-79
2023/03/12 01:47:34;;;;;;;37.65;9.73;;;;;;;;;;1039339;28;20046;-79
2023/03/12 01:48:12;;;;;;;33.75;14.10;;;;;;;;;;1031662;28;20045;-79
2023/03/12 01:48:57;;;;;;;33.47;9.15;;;;;;;;;;1036431;28;20070;-79
2023/03/12 01:49:42;;;;;;;15.27;7.00;;;;;;;;;;1036013;28;20007;-79
2023/03/12 01:50:24;;;;;;;30.95;9.30;;;;;;;;;;1042991;28;20012;-79
2023/03/12 01:51:03;;;;;;;27.50;7.97;;;;;;;;;;1036760;28;20037;-79
2023/03/12 01:51:47;;;;;;;24.80;9.50;;;;;;;;;;1038290;28;20006;-79
2023/03/12 01:52:35;;;;;;;30.10;7.90;;;;;;;;;;1031288;28;20058;-79
2023/03/12 01:53:12;;;;;;;36.47;10.75;;;;;;;;;;1028507;28;20018;-79
2023/03/12 01:53:50;;;;;;;20.40;8.05;;;;;;;;;;1028715;28;20022;-79
2023/03/12 01:54:26;;;;;;;38.40;10.13;;;;;;;;;;1037622;28;20030;-79
2023/03/12 01:54:59;;;;;;;23.27;8.70;;;;;;;;;;1040152;28;20017;-79
2023/03/12 01:55:34;;;;;;;31.35;7.45;;;;;;;;;;1034192;28;20058;-79
2023/03/12 01:56:15;;;;;;;34.88;7.90;;;;;;;;;;1026155;29;20031;-79
2023/03/12 01:56:53;;;;;;;17.80;7.90;;;;;;;;;;1031120;28;20291;-79
2023/03/12 01:57:34;;;;;;;13.48;6.03;;;;;;;;;;1037341;28;20046;-79
2023/03/12 01:58:06;;;;;;;37.78;8.07;;;;;;;;;;1040223;28;20022;-79
2023/03/12 01:58:41;;;;;;;27.27;7.35;;;;;;;;;;1036443;28;20026;-79
2023/03/12 01:59:21;;;;;;;30.58;5.93;;;;;;;;;;1033277;28;20026;-79
2023/03/12 02:00:06;;;;;;;20.42;7.18;;;;;;;;;;1030777;28;20007;-79
2023/03/12 02:00:40;;;;;;;41.00;10.60;;;;;;;;;;1028380;29;20015;-79
2023/03/12 02:01:15;;;;;;;28.08;8.25;;;;;;;;;;1027389;29;20024;-78
2023/03/12 02:01:47;;;;;;;27.35;9.95;;;;;;;;;;1030303;28;20046;-78
2023/03/12 02:02:28;;;;;;;22.48;8.77;;;;;;;;;;1034475;28;20026;-78
2023/03/12 02:03:06;;;;;;;19.95;7.38;;;;;;;;;;1028989;28;20003;-78
2023/03/12 02:03:41;;;;;;;37.97;10.52;;;;;;;;;;1030442;28;20054;-78
2023/03/12 02:04:19;;;;;;;28.90;8.60;;;;;;;;;;1027570;28;20039;-78
2023/03/12 02:05:25;;;;;;;25.70;8.43;;;;;;;;;;1032040;28;20090;-78
2023/03/12 02:06:07;;;;;;;14.35;5.55;;;;;;;;;;1018743;28;20103;-78
2023/03/12 02:06:44;;;;;;;25.67;7.40;;;;;;;;;;1028225;28;20011;-78
2023/03/12 02:07:17;;;;;;;22.10;7.63;;;;;;;;;;1027409;28;20057;-78
2023/03/12 02:07:50;;;;;;;22.92;5.70;;;;;;;;;;1028614;28;20030;-78
2023/03/12 02:08:24;;;;;;;19.00;8.95;;;;;;;;;;1030336;28;20502;-78
2023/03/12 02:08:58;;;;;;;31.20;9.98;;;;;;;;;;1027290;29;20007;-78
2023/03/12 02:09:41;;;;;;;14.35;6.30;;;;;;;;;;1023539;29;20023;-78
2023/03/12 02:10:15;;;;;;;21.42;6.07;;;;;;;;;;1026329;29;20006;-78
2023/03/12 02:10:51;;;;;;;23.38;6.50;;;;;;;;;;1033122;28;20026;-78
2023/03/12 02:11:25;;;;;;;25.88;7.18;;;;;;;;;;1036998;28;20050;-78
2023/03/12 02:11:57;;;;;;;34.53;6.47;;;;;;;;;;1036768;28;20026;-78
2023/03/12 02:12:30;;;;;;;29.88;7.18;;;;;;;;;;1030622;28;20062;-78
2023/03/12 02:13:01;;;;;;;20.63;6.18;;;;;;;;;;1028471;28;20031;-78
2023/03/12 02:13:36;;;;;;;21.02;5.63;;;;;;;;;;1026544;29;20035;-78
2023/03/12 02:14:06;;;;;;;12.68;5.15;;;;;;;;;;1029130;28;20046;-78
2023/03/12 02:14:37;;;;;;;33.13;9.07;;;;;;;;;;1028605;28;20030;-78
2023/03/12 02:15:11;;;;;;;36.05;6.70;;;;;;;;;;1029732;28;20031;-78
2023/03/12 02:15:51;;;;;;;23.02;6.43;;;;;;;;;;1033248;28;20023;-78
2023/03/12 02:16:30;;;;;;;21.75;7.80;;;;;;;;;;1034402;28;20053;-78
2023/03/12 02:17:01;;;;;;;18.30;7.10;;;;;;;;;;1030810;28;20033;-78
2023/03/12 02:17:35;;;;;;;30.27;8.15;;;;;;;;;;1029382;28;20054;-78
2023/03/12 02:18:17;;;;;;;15.43;7.28;;;;;;;;;;1028589;28;20019;-78
2023/03/12 02:18:51;;;;;;;27.75;7.50;;;;;;;;;;1025672;29;20503;-78
2023/03/12 02:19:31;;;;;;;16.13;7.20;;;;;;;;;;1027431;28;20007;-78
2023/03/12 02:20:06;;;;;;;18.63;5.20;;;;;;;;;;1029579;28;20066;-78
2023/03/12 02:20:44;;;;;;;35.90;5.82;;;;;;;;;;1036514;28;20018;-78
2023/03/12 02:21:19;;;;;;;27.67;7.68;;;;;;;;;;1036562;28;20058;-78
2023/03/12 02:21:51;;;;;;;35.47;7.40;;;;;;;;;;1030981;28;20023;-78
2023/03/12 02:22:30;;;;;;;37.60;7.70;;;;;;;;;;1032225;28;20498;-79
2023/03/12 02:23:20;;;;;;;51.35;11.45;;;;;;;;;;1031143;28;20007;-79
2023/03/12 02:24:02;;;;;;;27.38;4.72;;;;;;;;;;1036129;28;20512;-79
2023/03/12 02:25:02;;;;;;;32.97;8.02;;;;;;;;;;1032671;28;20027;-79
2023/03/12 02:25:45;;;;;;;40.53;7.35;;;;;;;;;;1029099;28;20026;-79
2023/03/12 02:26:19;;;;;;;27.38;9.40;;;;;;;;;;1029697;28;20023;-79
2023/03/12 02:26:51;;;;;;;21.15;5.65;;;;;;;;;;1026015;29;20074;-79
2023/03/12 02:27:24;;;;;;;16.92;7.15;;;;;;;;;;1029750;28;20003;-79
2023/03/12 02:28:01;;;;;;;14.05;8.02;;;;;;;;;;1035370;28;20504;-79
2023/03/12 02:28:41;;;;;;;30.92;9.70;;;;;;;;;;1031028;28;20169;-79
2023/03/12 02:29:16;;;;;;;24.60;8.35;;;;;;;;;;1032405;28;20026;-79
2023/03/12 02:29:50;;;;;;;29.73;11.45;;;;;;;;;;1031244;28;20003;-79
2023/03/12 02:30:22;;;;;;;32.70;10.10;;;;;;;;;;1031714;28;20026;-79
2023/03/12 02:30:56;;;;;;;27.70;9.93;;;;;;;;;;1032635;28;20015;-79
2023/03/12 02:31:32;;;;;;;27.63;8.43;;;;;;;;;;1034002;28;20419;-79
2023/03/12 02:32:05;;;;;;;31.90;10.23;;;;;;;;;;1039411;28;20587;-79
2023/03/12 02:32:39;;;;;;;45.60;10.20;;;;;;;;;;1037768;28;20026;-79
2023/03/12 02:33:16;;;;;;;32.63;9.00;;;;;;;;;;1036003;28;20003;-79
2023/03/12 02:33:47;;;;;;;19.50;9.23;;;;;;;;;;1037814;28;20029;-79
2023/03/12 02:34:18;;;;;;;27.88;12.68;;;;;;;;;;1030172;28;20118;-79
2023/03/12 02:34:51;;;;;;;41.00;10.70;;;;;;;;;;1031501;28;20005;-79
2023/03/12 02:35:26;;;;;;;28.15;10.38;;;;;;;;;;1029799;28;20065;-79
2023/03/12 02:35:57;;;;;;;26.58;11.10;;;;;;;;;;1024605;29;20020;-79
2023/03/12 02:36:28;;;;;;;42.25;10.13;;;;;;;;;;1027562;29;20027;-79
2023/03/12 02:37:02;;;;;;;19.58;6.78;;;;;;;;;;1028933;28;20034;-79
2023/03/12 02:37:47;;;;;;;17.58;7.03;;;;;;;;;;1032636;28;20035;-79
2023/03/12 02:38:35;;;;;;;21.73;9.32;;;;;;;;;;1034144;28;20363;-79
2023/03/12 02:39:10;;;;;;;18.45;8.10;;;;;;;;;;1032605;28;20031;-79
2023/03/12 02:39:44;;;;;;;18.67;8.30;;;;;;;;;;1032978;28;20029;-79
2023/03/12 02:40:19;;;;;;;22.13;9.23;;;;;;;;;;1028660;28;20114;-79
2023/03/12 02:40:50;;;;;;;32.80;10.95;;;;;;;;;;1028913;28;20062;-79
2023/03/12 02:41:32;;;;;;;41.65;12.32;;;;;;;;;;1032192;28;20073;-79
2023/03/12 02:42:04;;;;;;;43.03;11.20;;;;;;;;;;1036602;28;20030;-79
2023/03/12 02:42:38;;;;;;;37.67;10.82;;;;;;;;;;1034048;28;20018;-78
2023/03/12 02:43:20;;;;;;;27.27;7.47;;;;;;;;;;1032382;28;20011;-78
2023/03/12 02:43:57;;;;;;;22.42;11.10;;;;;;;;;;1031980;28;20034;-79
2023/03/12 02:44:32;;;;;;;12.13;7.45;;;;;;;;;;1032630;28;20018;-79
2023/03/12 02:45:08;;;;;;;32.35;13.48;;;;;;;;;;1031491;28;20174;-79
2023/03/12 02:45:42;;;;;;;32.35;9.50;;;;;;;;;;1032568;28;20021;-79
2023/03/12 02:46:14;;;;;;;25.83;9.32;;;;;;;;;;1034195;28;20015;-79
2023/03/12 02:46:50;;;;;;;22.20;8.27;;;;;;;;;;1033984;28;20051;-79
2023/03/12 02:47:23;;;;;;;32.88;12.00;;;;;;;;;;1034947;28;20029;-79
2023/03/12 02:47:54;;;;;;;15.73;9.00;;;;;;;;;;1035610;28;20027;-79
2023/03/12 02:48:32;;;;;;;23.02;11.50;;;;;;;;;;1035087;28;20035;-79
2023/03/12 02:49:07;;;;;;;26.05;10.25;;;;;;;;;;1036447;28;20022;-79
2023/03/12 02:49:43;;;;;;;35.13;10.70;;;;;;;;;;1034382;28;20005;-79
2023/03/12 02:50:15;;;;;;;32.05;11.95;;;;;;;;;;1035754;28;20019;-79
2023/03/12 02:50:46;;;;;;;50.42;12.20;;;;;;;;;;1035034;28;20031;-79
2023/03/12 02:51:16;;;;;;;31.58;12.57;;;;;;;;;;1030657;28;20092;-79
2023/03/12 02:51:47;;;;;;;24.45;10.35;;;;;;;;;;1028311;28;20023;-79
2023/03/12 02:52:20;;;;;;;42.83;13.25;;;;;;;;;;1029830;28;20046;-79
2023/03/12 02:52:51;;;;;;;38.20;13.80;;;;;;;;;;1025499;28;20099;-79
2023/03/12 02:53:22;;;;;;;30.73;11.60;;;;;;;;;;1024936;29;20120;-79
2023/03/12 02:53:56;;;;;;;61.75;13.43;;;;;;;;;;1025092;29;20070;-79
2023/03/12 02:54:30;;;;;;;34.63;11.63;;;;;;;;;;1025157;28;20098;-80
2023/03/12 02:55:09;;;;;;;31.75;11.68;;;;;;;;;;1033367;28;20094;-79
2023/03/12 02:55:42;;;;;;;32.85;11.77;;;;;;;;;;1035673;28;20042;-79
2023/03/12 02:56:17;;;;;;;26.02;10.05;;;;;;;;;;1034804;28;20091;-79
2023/03/12 02:56:49;;;;;;;23.38;10.13;;;;;;;;;;1036371;28;20026;-79
2023/03/12 02:57:20;;;;;;;55.50;12.30;;;;;;;;;;1035311;28;20029;-79
2023/03/12 02:57:50;;;;;;;25.88;10.50;;;;;;;;;;1036936;28;20006;-79
2023/03/12 02:58:22;;;;;;;29.40;12.68;;;;;;;;;;1033501;28;20446;-79
2023/03/12 02:58:56;;;;;;;43.10;15.27;;;;;;;;;;1035499;28;20037;-79
2023/03/12 02:59:29;;;;;;;40.55;11.82;;;;;;;;;;1035552;28;20054;-79
2023/03/12 03:00:01;;;;;;;36.63;12.95;;;;;;;;;;1034050;28;20097;-79
2023/03/12 03:00:32;;;;;;;43.28;10.38;;;;;;;;;;1031039;28;20027;-79
2023/03/12 03:01:13;;;;;;;23.13;8.82;;;;;;;;;;1032393;28;20022;-79
2023/03/12 03:01:46;;;;;;;30.05;11.45;;;;;;;;;;1030639;28;20019;-79
2023/03/12 03:02:16;;;;;;;34.22;9.07;;;;;;;;;;1030071;28;20471;-79
2023/03/12 03:02:48;;;;;;;34.15;12.38;;;;;;;;;;1030901;28;20525;-79
2023/03/12 03:03:23;;;;;;;41.72;11.23;;;;;;;;;;1032353;28;20041;-80
2023/03/12 03:03:54;;;;;;;44.58;11.57;;;;;;;;;;1030229;28;20030;-79
2023/03/12 03:04:28;;;;;;;24.98;12.85;;;;;;;;;;1030995;28;20023;-80
2023/03/12 03:04:59;;;;;;;43.05;11.15;;;;;;;;;;1031906;28;20053;-80
2023/03/12 03:05:36;;;;;;;43.90;12.30;;;;;;;;;;1031615;28;20545;-79
2023/03/12 03:06:08;;;;;;;34.90;10.93;;;;;;;;;;1034929;28;20085;-79
2023/03/12 03:06:40;;;;;;;28.52;10.70;;;;;;;;;;1035616;28;20022;-79
2023/03/12 03:07:11;;;;;;;55.28;9.77;;;;;;;;;;1032171;28;20022;-79
2023/03/12 03:07:43;;;;;;;32.78;10.15;;;;;;;;;;1033501;28;20072;-79
2023/03/12 03:08:15;;;;;;;38.50;11.73;;;;;;;;;;1034752;28;20025;-78
2023/03/12 03:08:46;;;;;;;34.50;13.23;;;;;;;;;;1031811;28;20023;-78
2023/03/12 03:09:16;;;;;;;40.47;13.43;;;;;;;;;;1037589;28;20359;-78
2023/03/12 03:09:48;;;;;;;39.25;15.68;;;;;;;;;;1031336;28;20031;-78
2023/03/12 03:10:19;;;;;;;31.85;11.13;;;;;;;;;;1033713;28;20026;-79
2023/03/12 03:10:51;;;;;;;24.90;9.70;;;;;;;;;;1032177;28;20479;-79
2023/03/12 03:11:23;;;;;;;19.35;10.35;;;;;;;;;;1026343;28;20045;-79
2023/03/12 03:11:55;;;;;;;30.83;11.60;;;;;;;;;;1034158;28;20033;-79
2023/03/12 03:12:30;;;;;;;30.15;8.70;;;;;;;;;;1035134;28;20022;-80
2023/03/12 03:13:02;;;;;;;35.60;10.57;;;;;;;;;;1036326;28;20518;-79
2023/03/12 03:13:33;;;;;;;30.33;13.15;;;;;;;;;;1035656;28;20019;-79
2023/03/12 03:14:08;;;;;;;26.08;9.90;;;;;;;;;;1034473;28;20023;-79
2023/03/12 03:14:42;;;;;;;45.53;12.38;;;;;;;;;;1033978;28;20005;-79
2023/03/12 03:15:13;;;;;;;53.92;10.65;;;;;;;;;;1033575;28;20026;-78
2023/03/12 03:15:44;;;;;;;44.08;14.63;;;;;;;;;;1038064;28;20044;-78
2023/03/12 03:16:17;;;;;;;36.20;12.38;;;;;;;;;;1037875;28;20142;-79
2023/03/12 03:16:50;;;;;;;27.90;11.27;;;;;;;;;;1034099;28;20026;-80
2023/03/12 03:17:23;;;;;;;43.83;15.05;;;;;;;;;;1031751;28;20026;-80
2023/03/12 03:17:54;;;;;;;41.05;11.38;;;;;;;;;;1028430;28;20026;-79
2023/03/12 03:18:26;;;;;;;27.08;10.20;;;;;;;;;;1029723;28;20019;-78
2023/03/12 03:19:02;;;;;;;57.42;10.93;;;;;;;;;;1032164;28;20029;-79
2023/03/12 03:19:32;;;;;;;28.67;12.23;;;;;;;;;;1031728;28;20026;-80
2023/03/12 03:20:07;;;;;;;33.08;13.25;;;;;;;;;;1035259;28;20033;-80
2023/03/12 03:20:39;;;;;;;28.90;11.88;;;;;;;;;;1036170;28;20037;-80
2023/03/12 03:21:15;;;;;;;32.72;14.00;;;;;;;;;;1038540;28;20089;-80
2023/03/12 03:21:46;;;;;;;45.42;16.25;;;;;;;;;;1033643;28;20030;-80
2023/03/12 03:22:17;;;;;;;48.05;13.50;;;;;;;;;;1030256;28;20026;-80
2023/03/12 03:22:47;;;;;;;29.98;12.38;;;;;;;;;;1030424;28;20061;-80
2023/03/12 03:23:20;;;;;;;34.53;12.98;;;;;;;;;;1031589;28;20034;-80
2023/03/12 03:23:53;;;;;;;29.90;11.38;;;;;;;;;;1033807;28;20066;-79
2023/03/12 03:24:24;;;;;;;38.05;11.55;;;;;;;;;;1034777;28;20090;-79
2023/03/12 03:24:55;;;;;;;38.83;18.13;;;;;;;;;;1033594;28;20142;-79
2023/03/12 03:25:26;;;;;;;49.72;16.63;;;;;;;;;;1033048;28;20041;-79
2023/03/12 03:26:02;;;;;;;46.15;13.73;;;;;;;;;;1032083;28;20030;-80
2023/03/12 03:26:34;;;;;;;37.45;12.05;;;;;;;;;;1025978;28;20113;-80
2023/03/12 03:27:04;;;;;;;48.85;14.23;;;;;;;;;;1025008;29;20016;-80
2023/03/12 03:27:35;;;;;;;47.58;14.38;;;;;;;;;;1025897;28;20014;-80
2023/03/12 03:28:06;;;;;;;30.27;14.65;;;;;;;;;;1031639;28;20054;-80
2023/03/12 03:28:37;;;;;;;30.67;14.65;;;;;;;;;;1036520;28;20029;-80
2023/03/12 03:29:08;;;;;;;47.03;15.38;;;;;;;;;;1039434;28;20036;-80
2023/03/12 03:29:39;;;;;;;38.88;14.80;;;;;;;;;;1035492;28;20099;-80
2023/03/12 03:30:10;;;;;;;38.42;13.13;;;;;;;;;;1032655;28;20121;-80
2023/03/12 03:30:47;;;;;;;54.85;12.93;;;;;;;;;;1028326;28;20141;-80
2023/03/12 03:31:20;;;;;;;32.10;12.75;;;;;;;;;;1029355;28;20150;-80
2023/03/12 03:31:51;;;;;;;49.83;16.98;;;;;;;;;;1034557;28;20058;-80
2023/03/12 03:32:21;;;;;;;32.10;13.25;;;;;;;;;;1034766;28;20058;-80
2023/03/12 03:32:53;;;;;;;45.97;15.10;;;;;;;;;;1035881;28;20026;-80
2023/03/12 03:33:24;;;;;;;52.42;14.05;;;;;;;;;;1032033;28;20102;-80
2023/03/12 03:33:55;;;;;;;43.92;13.57;;;;;;;;;;1027186;28;20041;-80
2023/03/12 03:34:29;;;;;;;42.17;13.48;;;;;;;;;;1036023;28;20485;-80
2023/03/12 03:35:01;;;;;;;27.75;11.85;;;;;;;;;;1038929;28;20461;-80
2023/03/12 03:35:33;;;;;;;55.17;17.88;;;;;;;;;;1038838;28;20036;-80
2023/03/12 03:36:06;;;;;;;42.15;16.48;;;;;;;;;;1034202;28;20568;-80
2023/03/12 03:36:37;;;;;;;58.60;16.75;;;;;;;;;;1032772;28;20169;-80
2023/03/12 03:37:08;;;;;;;23.58;13.25;;;;;;;;;;1033460;28;20037;-80
2023/03/12 03:37:39;;;;;;;44.40;11.80;;;;;;;;;;1031578;28;20027;-80
2023/03/12 03:38:10;;;;;;;64.53;13.75;;;;;;;;;;1036308;28;20018;-80
2023/03/12 03:38:45;;;;;;;37.78;15.18;;;;;;;;;;1029090;28;20131;-80
2023/03/12 03:39:16;;;;;;;29.50;11.88;;;;;;;;;;1034247;28;20005;-80
2023/03/12 03:39:48;;;;;;;43.90;15.23;;;;;;;;;;1033822;28;20090;-80